Hovedside
METAR-TAF:

METAR-TAF

Lufthavner :

Praia internasjonale lufthavn

Praia, Kapp Verde

breddegrad: 14-55-27N, lengdegrad: 23-29-38W, høyde over havet: 70 m

Gjeldene værobservasjon

Denne rapporten ble laget for 21 minutter siden, klokken 20:00 UTC
Vind 21 kt fra Nordøst
Temperatur 24°C
Luftfuktighet 69%
Trykk 1015 hPa
Sikt 10 km eller mer
Spredte skyer i en høyde av 2000 ft

METAR: GVNP 282000Z 05021KT 9999 SCT020 24/18 Q1015 NOSIG

Tid: 19:21 (20:21 UTC)

Varsel

Denne rapporten ble laget for 3 timer og 21 minutter siden, klokken 17:00 UTC
Varsel gyldig fra 28. klokken 18 UTC til 29. klokken 24 UTC
Vind 18 kt fra Nord-nordøst
Sikt 10 km eller mer
Spredte skyer i en høyde av 1600 ft
Midlertidig
fra 29. klokken 10 UTC til 29. klokken 18 UTC
Vind 18 kt fra Nordøst med vindkast opp mot 28 kt

TAF: GVNP 281700Z 2818/2924 03018KT 9999 SCT016 TEMPO 2910/2918 04018G28KT

Værobservasjoner og værvarsel for over 4000 flyplasser (METAR- og TAF-rapporter).

Tilgjengelige stasjoner er representert av de røde og gule prikkene på kartet.

Hold musepekeren over prikken for å se navnet på stasjonen.

Klikk så for å se værobservasjoner og -varsler.

For å forandre kartet kan du klikke på den grønne knappen med svart kryss for å zoome inn, på den grønne knappen med strek for å zoome ut, eller på de grønne pilene for å se tilstøtende kart.


METAR-TAF: